METAR Data
IDs: Format: Raw Decoded Include TAF

Data at: 0141 UTC 20 Jan 2022

ESTL 200120Z AUTO 31019G30KT 9999 -SN FEW020/// BKN053/// 01/M04 Q1000